Time;durP1;ratioP1;P1;durP2;ratioP2;P2;SDS_P1;SDS_P2;PMS_P1;PMS_P2;Temp;Humidity;BMP_temperature;BMP_pressure;BME280_temperature;BME280_humidity;BME280_pressure;Samples;Min_cycle;Max_cycle;Signal;HPM_P1;HPM_P2
2023/09/29 00:00:43;;;;;;;5.83;3.63;;;15.50;98.00;;;;;;5052332;28;20581;-70
2023/09/29 00:03:12;;;;;;;6.57;3.70;;;15.50;98.00;;;;;;5052672;28;20461;-69
2023/09/29 00:05:39;;;;;;;6.10;3.90;;;15.60;98.00;;;;;;5034805;28;20549;-68
2023/09/29 00:08:07;;;;;;;7.23;3.77;;;15.40;98.00;;;;;;5034322;28;20454;-68
2023/09/29 00:10:35;;;;;;;6.40;3.67;;;15.30;98.00;;;;;;5052561;28;20449;-67
2023/09/29 00:13:04;;;;;;;8.20;3.70;;;15.40;98.00;;;;;;5052045;28;20454;-68
2023/09/29 00:15:33;;;;;;;8.00;3.90;;;15.50;98.00;;;;;;5052099;28;20481;-71
2023/09/29 00:18:03;;;;;;;6.17;3.70;;;15.30;98.00;;;;;;5052231;28;20460;-68
2023/09/29 00:20:33;;;;;;;6.53;3.40;;;15.20;98.00;;;;;;5052526;28;20572;-71
2023/09/29 00:23:01;;;;;;;6.57;3.93;;;15.00;98.00;;;;;;5051969;28;20803;-69
2023/09/29 00:25:29;;;;;;;6.07;3.70;;;14.90;98.00;;;;;;5051798;28;20457;-69
2023/09/29 00:27:57;;;;;;;8.17;4.07;;;14.80;98.00;;;;;;5052107;28;20932;-70
2023/09/29 00:30:25;;;;;;;6.83;3.73;;;14.90;98.00;;;;;;5051952;28;20454;-68
2023/09/29 00:32:53;;;;;;;8.43;3.90;;;14.90;98.00;;;;;;5051838;28;20454;-68
2023/09/29 00:35:27;;;;;;;7.23;3.70;;;15.10;98.00;;;;;;5051781;28;20898;-67
2023/09/29 00:37:55;;;;;;;9.53;4.20;;;15.00;98.00;;;;;;5051764;28;20936;-69
2023/09/29 00:40:23;;;;;;;7.17;4.00;;;14.90;98.00;;;;;;5051738;28;20496;-69
2023/09/29 00:42:59;;;;;;;8.13;4.07;;;14.80;98.00;;;;;;5051641;28;20450;-67
2023/09/29 00:45:28;;;;;;;7.80;4.20;;;14.80;98.00;;;;;;5055726;28;20474;-70
2023/09/29 00:47:57;;;;;;;6.70;3.87;;;14.80;98.00;;;;;;5055804;28;20632;-68
2023/09/29 00:50:27;;;;;;;5.23;3.50;;;14.80;98.00;;;;;;5056184;28;20507;-70
2023/09/29 00:52:58;;;;;;;6.07;3.60;;;14.90;98.00;;;;;;5055517;28;20458;-69
2023/09/29 00:55:28;;;;;;;7.60;3.60;;;15.10;98.00;;;;;;5055963;28;20493;-68
2023/09/29 00:57:58;;;;;;;5.67;3.53;;;15.10;98.00;;;;;;5055703;28;20460;-67
2023/09/29 01:00:31;;;;;;;5.13;3.20;;;15.30;98.00;;;;;;5055877;28;20481;-69
2023/09/29 01:02:58;;;;;;;5.80;3.67;;;15.10;98.00;;;;;;5055357;28;20593;-68
2023/09/29 01:05:32;;;;;;;6.60;3.57;;;14.80;98.00;;;;;;5055711;28;20449;-68
2023/09/29 01:07:59;;;;;;;5.77;3.43;;;14.70;98.00;;;;;;5037675;28;20496;-69
2023/09/29 01:10:27;;;;;;;5.77;3.40;;;14.90;98.00;;;;;;5055817;28;20457;-68
2023/09/29 01:12:54;;;;;;;8.90;4.10;;;15.00;98.00;;;;;;5055262;28;20941;-68
2023/09/29 01:15:21;;;;;;;7.20;4.23;;;14.90;98.00;;;;;;5055456;28;20513;-69
2023/09/29 01:17:49;;;;;;;7.10;3.80;;;14.80;98.00;;;;;;5055441;28;20822;-69
2023/09/29 01:20:25;;;;;;;5.53;3.63;;;14.60;98.00;;;;;;5037061;28;20515;-68
2023/09/29 01:22:53;;;;;;;7.40;4.13;;;14.50;98.00;;;;;;5055397;28;20909;-68
2023/09/29 01:25:22;;;;;;;6.40;3.60;;;14.40;98.00;;;;;;5055364;28;20822;-67
2023/09/29 01:27:49;;;;;;;5.17;3.27;;;14.50;98.00;;;;;;5055303;28;20449;-68
2023/09/29 01:30:18;;;;;;;6.60;3.50;;;14.50;98.00;;;;;;5055209;28;20449;-67
2023/09/29 01:32:47;;;;;;;6.60;3.67;;;14.60;98.00;;;;;;5055385;28;20832;-68
2023/09/29 01:35:18;;;;;;;8.30;3.80;;;14.60;98.00;;;;;;5055237;28;20434;-67
2023/09/29 01:37:46;;;;;;;7.70;3.53;;;14.40;98.00;;;;;;5055303;28;20529;-67
2023/09/29 01:40:14;;;;;;;6.03;3.50;;;14.40;98.00;;;;;;5055062;28;20456;-69
2023/09/29 01:42:43;;;;;;;5.80;3.50;;;14.50;98.00;;;;;;5055078;28;20493;-69
2023/09/29 01:45:11;;;;;;;6.70;3.60;;;14.70;98.00;;;;;;5054937;28;20469;-68
2023/09/29 01:47:39;;;;;;;5.20;3.20;;;15.00;98.00;;;;;;5037123;28;20457;-68
2023/09/29 01:50:08;;;;;;;5.50;3.43;;;15.00;98.00;;;;;;5054703;28;21007;-68
2023/09/29 01:52:35;;;;;;;5.93;3.47;;;14.70;98.00;;;;;;5054429;28;21130;-67
2023/09/29 01:55:05;;;;;;;7.53;3.93;;;14.50;98.00;;;;;;5053252;28;20454;-68
2023/09/29 01:57:32;;;;;;;6.70;3.73;;;14.40;98.00;;;;;;5054555;28;20450;-69
2023/09/29 02:00:00;;;;;;;7.50;3.70;;;14.30;98.00;;;;;;5054548;28;20510;-69
2023/09/29 02:02:28;;;;;;;6.97;3.47;;;14.10;98.00;;;;;;5054363;28;20555;-68
2023/09/29 02:04:55;;;;;;;6.23;3.77;;;14.10;98.00;;;;;;5054377;28;20450;-67
2023/09/29 02:07:23;;;;;;;7.57;3.23;;;14.00;98.00;;;;;;5054208;28;20531;-68
2023/09/29 02:09:50;;;;;;;14.43;3.23;;;13.90;98.00;;;;;;5054334;28;20461;-67
2023/09/29 02:12:18;;;;;;;7.23;4.10;;;14.00;98.00;;;;;;5054248;28;20449;-68
2023/09/29 02:14:45;;;;;;;6.57;3.70;;;14.00;98.00;;;;;;5020435;28;20445;-67
2023/09/29 02:17:13;;;;;;;7.60;3.80;;;13.90;98.00;;;;;;5054201;28;20457;-69
2023/09/29 02:19:40;;;;;;;6.77;3.20;;;13.90;98.00;;;;;;5054264;28;20481;-69
2023/09/29 02:22:08;;;;;;;7.07;3.93;;;13.90;98.00;;;;;;5053946;28;20512;-68
2023/09/29 02:24:35;;;;;;;5.40;3.50;;;14.00;98.00;;;;;;5054143;28;21008;-67
2023/09/29 02:27:02;;;;;;;6.50;3.97;;;14.10;98.00;;;;;;5053925;28;20450;-68
2023/09/29 02:29:29;;;;;;;6.93;3.60;;;14.20;98.00;;;;;;5054089;28;20544;-69
2023/09/29 02:31:56;;;;;;;6.17;3.37;;;14.30;98.00;;;;;;5054279;28;20458;-69
2023/09/29 02:34:27;;;;;;;5.60;3.70;;;14.40;98.00;;;;;;5054059;28;21146;-68
2023/09/29 02:36:54;;;;;;;6.53;3.50;;;14.50;98.00;;;;;;5053916;28;20461;-67
2023/09/29 02:39:22;;;;;;;5.07;3.30;;;14.30;98.00;;;;;;5053686;28;20956;-67
2023/09/29 02:41:49;;;;;;;5.70;3.30;;;14.20;98.00;;;;;;5053619;28;20477;-68
2023/09/29 02:44:16;;;;;;;7.00;3.83;;;14.00;98.00;;;;;;5053876;28;20460;-69
2023/09/29 02:46:44;;;;;;;6.73;3.80;;;13.80;98.00;;;;;;5053575;28;20819;-67
2023/09/29 02:49:11;;;;;;;6.50;3.80;;;13.80;98.00;;;;;;5053721;28;20457;-69
2023/09/29 02:51:39;;;;;;;4.97;3.20;;;13.70;98.00;;;;;;5053616;28;20462;-68
2023/09/29 02:54:10;;;;;;;10.50;3.87;;;13.70;98.00;;;;;;5053630;28;20453;-69
2023/09/29 02:56:38;;;;;;;5.83;3.60;;;13.80;98.00;;;;;;5053475;28;20485;-68
2023/09/29 02:59:07;;;;;;;10.40;3.90;;;13.70;98.00;;;;;;5053219;28;20481;-71
2023/09/29 03:01:34;;;;;;;8.53;4.00;;;13.80;98.00;;;;;;5053217;28;20486;-69
2023/09/29 03:04:01;;;;;;;7.57;3.97;;;13.80;98.00;;;;;;5053443;28;20516;-68
2023/09/29 03:06:29;;;;;;;6.73;3.60;;;13.80;98.00;;;;;;5052808;28;20442;-68
2023/09/29 03:08:58;;;;;;;11.80;4.30;;;13.70;98.00;;;;;;5053326;28;20485;-69
2023/09/29 03:11:26;;;;;;;9.70;4.30;;;13.70;98.00;;;;;;5035737;28;21180;-69
2023/09/29 03:13:54;;;;;;;6.30;3.80;;;13.90;98.00;;;;;;5053473;28;20484;-69
2023/09/29 03:16:21;;;;;;;7.30;4.30;;;13.70;98.00;;;;;;5053035;28;21012;-69
2023/09/29 03:18:48;;;;;;;9.20;4.30;;;14.00;98.00;;;;;;5053348;28;20452;-69
2023/09/29 03:21:15;;;;;;;8.70;4.13;;;14.10;98.00;;;;;;5052970;28;20500;-68
2023/09/29 03:23:43;;;;;;;5.73;3.63;;;14.00;98.00;;;;;;5053042;28;20545;-67
2023/09/29 03:26:16;;;;;;;8.83;4.00;;;14.00;98.00;;;;;;5052926;28;20477;-68
2023/09/29 03:28:43;;;;;;;7.80;3.60;;;13.90;98.00;;;;;;5052761;28;20453;-70
2023/09/29 03:31:10;;;;;;;11.13;3.40;;;13.90;98.00;;;;;;5052931;28;20446;-68
2023/09/29 03:33:38;;;;;;;7.20;3.70;;;14.00;98.00;;;;;;5052736;28;20454;-70
2023/09/29 03:36:05;;;;;;;7.37;4.10;;;14.00;98.00;;;;;;5052721;28;20820;-68
2023/09/29 03:38:32;;;;;;;8.20;4.10;;;13.80;98.00;;;;;;5052559;28;20457;-68
2023/09/29 03:41:00;;;;;;;7.37;3.97;;;13.80;98.00;;;;;;5052455;28;20477;-67
2023/09/29 03:43:28;;;;;;;7.83;4.30;;;13.50;98.00;;;;;;5052960;28;20458;-68
2023/09/29 03:45:55;;;;;;;5.50;3.70;;;13.30;98.00;;;;;;5052481;28;20506;-68
2023/09/29 03:48:24;;;;;;;6.80;3.23;;;13.40;98.00;;;;;;5052270;28;20580;-68
2023/09/29 03:50:52;;;;;;;6.53;3.90;;;13.50;98.00;;;;;;5052625;28;20512;-69
2023/09/29 03:53:19;;;;;;;5.87;4.10;;;13.40;98.00;;;;;;5052522;28;20818;-67
2023/09/29 03:55:46;;;;;;;7.50;4.10;;;13.30;98.00;;;;;;5052549;28;20453;-69
2023/09/29 03:58:14;;;;;;;7.60;3.60;;;13.40;98.00;;;;;;5052314;28;20462;-68
2023/09/29 04:00:42;;;;;;;6.23;3.70;;;13.50;98.00;;;;;;5052521;28;20449;-68
2023/09/29 04:03:09;;;;;;;6.57;3.67;;;13.50;98.00;;;;;;5052283;28;20504;-67
2023/09/29 04:05:36;;;;;;;6.30;3.73;;;13.50;98.00;;;;;;5052426;28;20820;-69
2023/09/29 04:08:03;;;;;;;7.20;3.53;;;13.50;98.00;;;;;;5052108;28;20480;-69
2023/09/29 04:10:31;;;;;;;7.00;3.80;;;13.40;98.00;;;;;;5052045;28;20457;-68
2023/09/29 04:12:59;;;;;;;6.83;3.63;;;13.40;98.00;;;;;;5052371;28;20465;-70
2023/09/29 04:15:27;;;;;;;7.20;3.70;;;13.20;98.00;;;;;;5052183;28;20457;-67
2023/09/29 04:17:56;;;;;;;10.43;3.97;;;13.10;98.00;;;;;;5051904;28;20537;-70
2023/09/29 04:20:23;;;;;;;7.30;4.10;;;13.30;98.00;;;;;;5051800;28;20978;-68
2023/09/29 04:22:51;;;;;;;7.07;3.90;;;13.00;98.00;;;;;;5052475;28;20477;-67
2023/09/29 04:25:18;;;;;;;5.47;3.43;;;13.00;98.00;;;;;;5052135;28;20456;-67
2023/09/29 04:27:45;;;;;;;8.10;3.60;;;13.20;98.00;;;;;;5051876;28;20461;-68
2023/09/29 04:30:13;;;;;;;6.43;3.50;;;13.40;98.00;;;;;;5051985;28;20481;-68
2023/09/29 04:32:40;;;;;;;5.57;3.90;;;13.40;98.00;;;;;;5051735;28;20462;-67
2023/09/29 04:35:10;;;;;;;5.53;3.70;;;13.30;98.00;;;;;;5051972;28;20453;-67
2023/09/29 04:37:38;;;;;;;6.50;4.00;;;13.20;98.00;;;;;;5051941;28;20450;-70
2023/09/29 04:40:06;;;;;;;7.00;3.87;;;13.10;98.00;;;;;;5052013;28;20469;-69
2023/09/29 04:42:34;;;;;;;6.67;3.60;;;13.00;98.00;;;;;;5051721;28;20517;-70
2023/09/29 04:45:01;;;;;;;6.47;3.70;;;12.90;98.00;;;;;;5051872;28;20508;-67
2023/09/29 04:47:28;;;;;;;5.33;3.53;;;12.90;98.00;;;;;;5051859;28;20445;-69
2023/09/29 04:49:55;;;;;;;7.40;3.80;;;12.90;98.00;;;;;;5051852;28;20450;-69
2023/09/29 04:52:24;;;;;;;7.20;3.77;;;13.20;98.00;;;;;;5051728;28;20465;-68
2023/09/29 04:54:52;;;;;;;9.47;4.13;;;13.30;98.00;;;;;;5052131;28;20453;-67
2023/09/29 04:57:19;;;;;;;6.43;3.53;;;13.20;98.00;;;;;;5052089;28;20454;-67
2023/09/29 04:59:46;;;;;;;6.93;3.27;;;13.20;98.00;;;;;;5051811;28;20804;-68
2023/09/29 05:02:13;;;;;;;6.43;3.70;;;13.10;98.00;;;;;;5051566;28;20926;-68
2023/09/29 05:04:40;;;;;;;6.13;3.80;;;13.00;98.00;;;;;;5051840;28;20438;-68
2023/09/29 05:07:08;;;;;;;8.77;4.03;;;13.10;98.00;;;;;;5051809;28;20935;-70
2023/09/29 05:09:37;;;;;;;6.97;3.97;;;13.20;98.00;;;;;;5051612;28;20457;-67
2023/09/29 05:12:06;;;;;;;6.00;3.43;;;13.20;98.00;;;;;;5051563;28;20456;-67
2023/09/29 05:14:33;;;;;;;9.07;4.13;;;13.10;98.00;;;;;;5051758;28;20519;-68
2023/09/29 05:17:00;;;;;;;7.30;3.97;;;13.10;98.00;;;;;;5051321;28;20461;-69
2023/09/29 05:19:27;;;;;;;7.20;3.97;;;13.30;98.00;;;;;;5051661;28;20445;-67
2023/09/29 05:21:54;;;;;;;8.00;3.93;;;13.20;98.00;;;;;;5051431;28;20983;-67
2023/09/29 05:24:21;;;;;;;7.10;3.90;;;13.10;98.00;;;;;;5051516;28;20471;-68
2023/09/29 05:26:49;;;;;;;7.13;4.07;;;13.20;98.00;;;;;;5051061;28;20952;-68
2023/09/29 05:29:17;;;;;;;8.00;4.27;;;13.10;98.00;;;;;;5051878;28;20460;-67
2023/09/29 05:31:45;;;;;;;7.50;4.17;;;13.10;98.00;;;;;;5055053;28;20453;-68
2023/09/29 05:34:21;;;;;;;8.63;3.97;;;13.20;98.00;;;;;;5055069;28;20449;-69
2023/09/29 05:36:48;;;;;;;9.03;3.97;;;13.10;98.00;;;;;;5054930;28;20467;-68
2023/09/29 05:39:15;;;;;;;12.37;3.87;;;13.00;98.00;;;;;;5054905;28;20456;-67
2023/09/29 05:41:42;;;;;;;6.63;3.67;;;13.10;98.00;;;;;;5054542;28;20465;-70
2023/09/29 05:44:11;;;;;;;8.60;4.30;;;13.30;98.00;;;;;;5054803;28;20454;-70
2023/09/29 05:46:38;;;;;;;7.07;3.93;;;13.60;98.00;;;;;;5054653;28;20464;-67
2023/09/29 05:49:05;;;;;;;7.93;3.60;;;13.60;98.00;;;;;;5054638;28;20462;-66
2023/09/29 05:51:32;;;;;;;7.37;4.10;;;13.70;98.00;;;;;;5054685;28;20450;-66
2023/09/29 05:54:02;;;;;;;11.27;4.57;;;13.60;98.00;;;;;;5054409;28;20465;-67
2023/09/29 05:56:31;;;;;;;6.27;3.83;;;13.50;98.00;;;;;;5054553;28;20823;-67
2023/09/29 05:59:00;;;;;;;10.60;4.10;;;13.60;98.00;;;;;;5037110;28;20476;-66
2023/09/29 06:01:29;;;;;;;7.83;3.93;;;13.60;98.00;;;;;;5054467;28;20536;-67
2023/09/29 06:03:56;;;;;;;9.60;4.80;;;13.80;98.00;;;;;;5054130;28;21011;-67
2023/09/29 06:06:24;;;;;;;8.40;4.40;;;13.90;98.00;;;;;;5054344;28;20457;-67
2023/09/29 06:08:51;;;;;;;9.00;4.30;;;13.90;98.00;;;;;;5054092;28;20990;-68
2023/09/29 06:11:18;;;;;;;8.03;4.00;;;13.90;98.00;;;;;;5054103;28;20450;-67
2023/09/29 06:13:45;;;;;;;7.70;4.37;;;14.00;98.00;;;;;;5054071;28;20458;-67
2023/09/29 06:16:12;;;;;;;7.83;4.40;;;14.00;98.00;;;;;;5053985;28;20450;-67
2023/09/29 06:18:40;;;;;;;9.00;4.27;;;13.90;98.00;;;;;;5036361;28;20450;-66
2023/09/29 06:21:08;;;;;;;7.70;4.30;;;14.00;98.00;;;;;;5054060;28;20455;-68
2023/09/29 06:23:35;;;;;;;7.00;4.13;;;14.30;98.00;;;;;;5054057;28;21212;-67
2023/09/29 06:26:02;;;;;;;6.10;3.67;;;14.30;98.00;;;;;;5036380;28;20454;-68
2023/09/29 06:28:30;;;;;;;7.33;4.00;;;14.40;98.00;;;;;;5053814;28;20931;-68
2023/09/29 06:30:57;;;;;;;6.97;4.43;;;14.70;98.00;;;;;;5053486;28;20549;-67
2023/09/29 06:33:25;;;;;;;10.37;4.57;;;14.80;98.00;;;;;;5053754;28;20466;-67
2023/09/29 06:35:54;;;;;;;8.80;4.20;;;14.90;98.00;;;;;;5053767;28;20457;-67
2023/09/29 06:38:21;;;;;;;7.80;4.70;;;15.00;98.00;;;;;;5053827;28;20446;-67
2023/09/29 06:40:51;;;;;;;10.27;4.73;;;15.10;98.00;;;;;;5053363;28;20453;-68
2023/09/29 06:43:18;;;;;;;11.63;5.20;;;15.10;98.00;;;;;;5053417;28;20622;-67
2023/09/29 06:45:45;;;;;;;10.07;4.53;;;15.30;98.00;;;;;;5053906;28;20449;-66
2023/09/29 06:48:12;;;;;;;9.23;4.73;;;15.40;98.00;;;;;;5053896;28;20449;-68
2023/09/29 06:50:39;;;;;;;10.47;5.43;;;15.40;98.00;;;;;;5035922;28;20461;-67
2023/09/29 06:53:08;;;;;;;9.67;4.40;;;15.40;98.00;;;;;;5053808;28;20855;-67
2023/09/29 06:55:36;;;;;;;8.50;4.77;;;15.30;98.00;;;;;;5035705;28;20834;-68
2023/09/29 06:58:04;;;;;;;10.20;4.93;;;15.50;98.00;;;;;;5052996;28;20442;-67
2023/09/29 07:00:32;;;;;;;11.10;4.67;;;15.50;98.00;;;;;;5053283;28;20894;-68
2023/09/29 07:03:00;;;;;;;7.03;4.27;;;15.70;98.00;;;;;;5052870;28;20481;-68
2023/09/29 07:05:27;;;;;;;10.20;4.90;;;15.80;98.00;;;;;;5053189;28;20848;-67
2023/09/29 07:07:54;;;;;;;20.20;4.90;;;15.80;98.00;;;;;;5052793;28;20497;-69
2023/09/29 07:10:23;;;;;;;8.70;4.60;;;15.80;98.00;;;;;;5052792;28;20446;-69
2023/09/29 07:12:50;;;;;;;11.23;4.87;;;15.90;98.00;;;;;;5052503;28;20449;-67
2023/09/29 07:15:17;;;;;;;9.10;5.60;;;16.10;98.00;;;;;;5051440;28;20450;-66
2023/09/29 07:17:44;;;;;;;9.07;5.10;;;16.10;98.00;;;;;;5036524;28;20509;-68
2023/09/29 07:20:13;;;;;;;8.37;4.63;;;16.20;98.00;;;;;;5032304;28;20827;-68
2023/09/29 07:22:40;;;;;;;8.20;4.30;;;16.40;98.00;;;;;;5031981;28;21068;-63
2023/09/29 07:25:08;;;;;;;8.97;4.90;;;16.50;98.00;;;;;;5032053;28;20463;-65
2023/09/29 07:27:39;;;;;;;11.47;5.10;;;16.60;98.00;;;;;;5032029;28;20466;-65
2023/09/29 07:30:08;;;;;;;10.60;5.20;;;16.80;98.00;;;;;;5031906;28;20457;-67
2023/09/29 07:32:36;;;;;;;9.33;4.90;;;16.80;98.00;;;;;;5032126;28;20459;-67
2023/09/29 07:35:07;;;;;;;9.30;4.57;;;16.80;98.00;;;;;;5031793;28;20461;-64
2023/09/29 07:37:34;;;;;;;11.30;5.47;;;16.80;98.00;;;;;;5031718;28;20513;-64
2023/09/29 07:40:10;;;;;;;12.10;4.43;;;16.90;98.00;;;;;;5031747;28;20462;-62
2023/09/29 07:42:39;;;;;;;10.33;4.43;;;17.00;98.00;;;;;;5031354;28;20486;-64
2023/09/29 07:45:08;;;;;;;8.67;4.67;;;17.10;98.00;;;;;;5031660;28;20465;-55
2023/09/29 07:47:35;;;;;;;9.47;5.10;;;17.20;98.00;;;;;;5031715;28;20451;-65
2023/09/29 07:50:02;;;;;;;10.93;5.30;;;17.30;98.00;;;;;;5031562;28;20945;-67
2023/09/29 07:52:29;;;;;;;7.80;4.80;;;17.50;98.00;;;;;;5031656;28;20457;-66
2023/09/29 07:54:56;;;;;;;8.83;4.90;;;17.70;98.00;;;;;;5031608;28;20458;-64
2023/09/29 07:57:24;;;;;;;10.00;5.10;;;17.90;98.00;;;;;;5031719;28;20521;-66
2023/09/29 07:59:52;;;;;;;10.23;5.37;;;17.90;98.00;;;;;;5031523;28;20447;-67
2023/09/29 08:02:20;;;;;;;10.83;4.50;;;18.00;98.00;;;;;;5031383;28;20988;-67
2023/09/29 08:04:47;;;;;;;10.80;5.20;;;18.00;98.00;;;;;;5031389;28;20455;-66
2023/09/29 08:07:14;;;;;;;9.40;4.90;;;18.00;98.00;;;;;;5031571;28;20454;-67
2023/09/29 08:09:41;;;;;;;10.57;5.20;;;18.00;98.00;;;;;;5031407;28;20455;-67
2023/09/29 08:12:08;;;;;;;9.53;4.83;;;18.20;98.00;;;;;;5031495;28;20979;-67
2023/09/29 08:14:36;;;;;;;13.40;5.50;;;18.10;98.00;;;;;;5031334;28;20470;-66
2023/09/29 08:17:05;;;;;;;16.50;5.40;;;18.30;98.00;;;;;;5031266;28;20501;-67
2023/09/29 08:19:34;;;;;;;10.87;5.57;;;18.40;98.00;;;;;;5031427;28;20474;-67
2023/09/29 08:22:02;;;;;;;10.00;5.40;;;18.30;98.00;;;;;;5031524;28;20457;-68
2023/09/29 08:24:31;;;;;;;12.47;5.70;;;18.30;98.00;;;;;;5031181;28;20485;-67
2023/09/29 08:26:58;;;;;;;9.67;5.17;;;18.30;98.00;;;;;;5031235;28;20458;-67
2023/09/29 08:29:25;;;;;;;8.97;5.27;;;18.40;98.00;;;;;;5046709;28;20451;-66
2023/09/29 08:31:53;;;;;;;11.13;5.43;;;18.50;98.00;;;;;;5031347;28;20872;-66
2023/09/29 08:34:22;;;;;;;10.83;5.90;;;18.70;98.00;;;;;;5031400;28;20542;-66
2023/09/29 08:36:49;;;;;;;13.23;6.13;;;18.80;98.00;;;;;;5031293;28;20459;-67
2023/09/29 08:39:17;;;;;;;10.10;5.60;;;19.00;98.00;;;;;;5031432;28;20822;-67
2023/09/29 08:41:49;;;;;;;11.63;5.97;;;19.10;98.00;;;;;;5046280;28;20502;-67
2023/09/29 08:44:19;;;;;;;9.30;5.43;;;19.20;98.00;;;;;;5013498;28;20487;-67
2023/09/29 08:46:56;;;;;;;8.33;5.13;;;19.30;98.00;;;;;;5031297;28;20459;-67
2023/09/29 08:49:24;;;;;;;10.40;5.60;;;19.40;98.00;;;;;;5031007;28;20492;-66
2023/09/29 08:51:53;;;;;;;11.00;5.40;;;19.70;98.00;;;;;;5030994;28;20513;-68
2023/09/29 08:54:21;;;;;;;10.73;5.50;;;19.90;98.00;;;;;;5031427;28;20768;-67
2023/09/29 08:56:50;;;;;;;8.53;5.30;;;20.10;98.00;;;;;;5030859;28;20640;-66
2023/09/29 08:59:18;;;;;;;8.80;5.67;;;20.10;98.00;;;;;;5031087;28;20487;-67
2023/09/29 09:01:46;;;;;;;10.63;5.30;;;20.30;98.00;;;;;;5030683;28;20550;-67
2023/09/29 09:04:13;;;;;;;14.33;5.53;;;20.60;98.00;;;;;;5031104;28;20493;-67
2023/09/29 09:06:41;;;;;;;7.67;4.70;;;20.80;98.00;;;;;;5034707;28;20520;-66
2023/09/29 09:09:09;;;;;;;8.80;5.17;;;20.90;98.00;;;;;;5034802;28;20478;-68
2023/09/29 09:11:42;;;;;;;14.63;5.37;;;20.90;98.00;;;;;;5034824;28;20482;-68
2023/09/29 09:14:13;;;;;;;7.77;4.77;;;20.90;98.00;;;;;;5034680;28;20483;-69
2023/09/29 09:16:40;;;;;;;10.03;5.30;;;21.00;98.00;;;;;;5034807;28;20459;-68
2023/09/29 09:19:11;;;;;;;7.30;4.40;;;21.00;98.00;;;;;;5034841;28;20458;-66
2023/09/29 09:21:38;;;;;;;8.10;4.73;;;21.30;98.00;;;;;;5034475;28;20446;-66
2023/09/29 09:24:18;;;;;;;9.13;4.70;;;21.60;98.00;;;;;;5034448;28;20502;-67
2023/09/29 09:26:48;;;;;;;8.63;4.93;;;21.80;98.00;;;;;;5034375;28;20557;-67
2023/09/29 09:29:17;;;;;;;10.80;4.47;;;22.10;98.00;;;;;;5034583;28;20489;-68
2023/09/29 09:31:50;;;;;;;7.73;4.60;;;22.30;98.00;;;;;;5034266;28;20456;-68
2023/09/29 09:34:18;;;;;;;8.93;4.67;;;22.60;98.00;;;;;;5016594;28;20512;-67
2023/09/29 09:36:47;;;;;;;6.97;4.57;;;22.80;98.00;;;;;;5034197;28;20454;-69
2023/09/29 09:39:16;;;;;;;8.47;4.57;;;23.00;98.00;;;;;;5016965;28;20450;-67
2023/09/29 09:41:45;;;;;;;9.70;5.30;;;23.10;98.00;;;;;;5034222;28;20516;-68
2023/09/29 09:44:12;;;;;;;6.83;4.70;;;23.40;98.00;;;;;;5034210;28;20490;-67
2023/09/29 09:46:41;;;;;;;8.20;4.43;;;23.60;98.00;;;;;;5034055;28;20454;-68
2023/09/29 09:49:14;;;;;;;7.83;4.60;;;23.80;98.00;;;;;;5034210;28;20490;-67
2023/09/29 09:51:44;;;;;;;8.70;5.10;;;24.00;98.00;;;;;;5049208;28;20450;-68
2023/09/29 09:54:16;;;;;;;6.40;4.30;;;24.20;98.00;;;;;;5034188;28;20458;-67
2023/09/29 09:56:55;;;;;;;7.67;4.50;;;24.40;98.00;;;;;;5049156;28;20462;-67
2023/09/29 09:59:27;;;;;;;8.63;4.50;;;24.60;98.00;;;;;;5034064;28;20556;-68
2023/09/29 10:01:55;;;;;;;7.30;4.40;;;24.80;98.00;;;;;;5033612;28;20463;-67
2023/09/29 10:04:27;;;;;;;8.20;4.73;;;25.00;98.00;;;;;;5033780;28;20561;-67
2023/09/29 10:06:56;;;;;;;8.97;4.07;;;25.20;98.00;;;;;;5033975;28;20946;-67
2023/09/29 10:09:23;;;;;;;8.97;4.93;;;25.50;98.00;;;;;;5033890;28;20453;-67
2023/09/29 10:12:00;;;;;;;6.37;4.03;;;25.70;98.00;;;;;;5034016;28;20502;-67
2023/09/29 10:14:27;;;;;;;5.70;3.67;;;26.10;98.00;;;;;;5033991;28;20458;-67
2023/09/29 10:17:02;;;;;;;5.83;4.13;;;26.30;98.00;;;;;;5032301;28;20540;-68
2023/09/29 10:19:37;;;;;;;5.73;4.00;;;26.70;96.90;;;;;;5033678;28;20454;-66
2023/09/29 10:22:06;;;;;;;8.30;4.10;;;27.00;97.50;;;;;;5033566;28;20464;-67
2023/09/29 10:24:33;;;;;;;5.63;3.53;;;27.30;95.40;;;;;;5033392;28;20486;-67
2023/09/29 10:27:06;;;;;;;4.60;3.47;;;27.60;94.90;;;;;;5033378;28;20453;-67
2023/09/29 10:29:35;;;;;;;10.10;4.33;;;27.80;94.10;;;;;;5048099;28;20455;-67
2023/09/29 10:32:13;;;;;;;5.53;3.70;;;28.00;93.50;;;;;;5033110;28;20530;-66
2023/09/29 10:34:41;;;;;;;5.50;3.53;;;28.20;92.40;;;;;;5048105;28;20481;-67
2023/09/29 10:37:09;;;;;;;5.40;3.70;;;28.50;90.30;;;;;;5033122;28;20521;-67
2023/09/29 10:39:37;;;;;;;4.73;3.10;;;28.60;89.40;;;;;;5033124;28;20503;-66
2023/09/29 10:42:12;;;;;;;5.43;3.40;;;28.70;89.40;;;;;;5033390;28;20457;-66
2023/09/29 10:44:44;;;;;;;4.80;3.40;;;29.10;89.40;;;;;;5033320;28;20691;-66
2023/09/29 10:47:13;;;;;;;4.47;3.30;;;29.20;87.30;;;;;;5032791;28;20892;-68
2023/09/29 10:49:46;;;;;;;5.50;3.80;;;29.50;86.20;;;;;;5033060;28;20454;-67
2023/09/29 10:52:19;;;;;;;14.50;3.97;;;29.80;87.00;;;;;;5032443;28;20517;-67
2023/09/29 10:54:50;;;;;;;5.70;3.40;;;29.60;85.40;;;;;;5033019;28;20446;-66
2023/09/29 10:57:22;;;;;;;5.70;3.70;;;29.10;87.70;;;;;;5032632;28;20459;-66
2023/09/29 10:59:49;;;;;;;6.17;4.00;;;28.70;87.30;;;;;;5032654;28;20467;-66
2023/09/29 11:02:17;;;;;;;6.87;4.13;;;28.40;88.20;;;;;;5032694;28;20465;-67
2023/09/29 11:04:46;;;;;;;6.90;3.80;;;28.10;87.30;;;;;;5032851;28;20483;-66
2023/09/29 11:07:15;;;;;;;5.90;3.70;;;28.10;89.10;;;;;;5032869;28;20450;-66
2023/09/29 11:09:42;;;;;;;5.57;3.77;;;28.10;87.70;;;;;;5032521;28;20461;-66
2023/09/29 11:12:18;;;;;;;6.00;4.20;;;28.20;89.10;;;;;;5032371;28;20443;-62
2023/09/29 11:14:46;;;;;;;5.90;3.87;;;28.10;89.60;;;;;;5032710;28;20465;-68
2023/09/29 11:17:15;;;;;;;6.90;3.73;;;28.00;89.30;;;;;;5032461;28;20827;-67
2023/09/29 11:19:52;;;;;;;5.20;3.63;;;27.80;89.60;;;;;;5032337;28;20454;-67
2023/09/29 11:22:20;;;;;;;6.20;3.93;;;28.00;91.00;;;;;;5032270;28;20503;-67
2023/09/29 11:24:50;;;;;;;6.33;3.57;;;28.20;91.80;;;;;;5032104;28;20486;-67
2023/09/29 11:27:20;;;;;;;5.40;3.70;;;28.70;89.70;;;;;;5031794;28;20458;-68
2023/09/29 11:29:48;;;;;;;5.80;4.00;;;29.30;88.60;;;;;;5032342;28;20487;-71
2023/09/29 11:32:18;;;;;;;6.83;3.53;;;29.70;87.80;;;;;;5032078;28;20446;-72
2023/09/29 11:34:46;;;;;;;5.77;3.87;;;30.20;87.40;;;;;;5032087;28;20455;-69
2023/09/29 11:37:13;;;;;;;5.57;3.80;;;30.50;85.50;;;;;;5031880;28;20639;-67
2023/09/29 11:39:42;;;;;;;5.10;3.73;;;30.70;85.20;;;;;;5031972;28;20446;-73
2023/09/29 11:42:09;;;;;;;6.87;4.23;;;30.80;84.00;;;;;;5031417;28;20458;-69
2023/09/29 11:44:36;;;;;;;10.00;4.10;;;30.90;85.10;;;;;;5031849;28;20519;-71
2023/09/29 11:47:05;;;;;;;5.23;3.77;;;31.00;84.40;;;;;;5032005;28;20464;-71
2023/09/29 11:49:32;;;;;;;5.27;3.50;;;31.20;84.50;;;;;;5031876;28;20447;-70
2023/09/29 11:51:59;;;;;;;7.23;3.90;;;31.40;83.80;;;;;;5032006;28;20458;-66
2023/09/29 11:54:26;;;;;;;6.23;4.20;;;31.50;84.00;;;;;;5032051;28;20480;-67
2023/09/29 11:56:54;;;;;;;5.77;3.90;;;31.50;82.90;;;;;;5031722;28;20450;-66
2023/09/29 11:59:21;;;;;;;7.80;4.10;;;31.30;84.10;;;;;;5031676;28;20840;-68
2023/09/29 12:01:48;;;;;;;7.10;4.67;;;31.20;84.20;;;;;;5031307;28;20542;-71
2023/09/29 12:04:17;;;;;;;7.60;4.40;;;31.00;83.90;;;;;;5031596;28;20494;-66
2023/09/29 12:06:44;;;;;;;6.33;4.33;;;31.00;84.30;;;;;;5031348;28;20941;-68
2023/09/29 12:09:11;;;;;;;5.77;4.17;;;30.90;84.90;;;;;;5031611;28;20451;-68
2023/09/29 12:11:38;;;;;;;6.80;4.50;;;31.00;85.80;;;;;;5031498;28;20490;-67
2023/09/29 12:14:08;;;;;;;6.00;4.13;;;31.10;87.40;;;;;;5031277;28;20736;-68
2023/09/29 12:16:35;;;;;;;7.07;4.40;;;31.30;84.80;;;;;;5031333;28;20541;-67
2023/09/29 12:19:02;;;;;;;6.77;4.53;;;31.40;83.40;;;;;;5031307;28;20529;-68
2023/09/29 12:21:32;;;;;;;6.60;4.80;;;31.40;85.60;;;;;;5031389;28;20945;-68
2023/09/29 12:23:59;;;;;;;5.93;3.87;;;31.20;84.70;;;;;;5031029;28;20517;-69
2023/09/29 12:26:26;;;;;;;8.07;4.57;;;31.00;86.00;;;;;;5031460;28;20458;-65
2023/09/29 12:28:53;;;;;;;6.83;4.60;;;31.10;86.30;;;;;;5031130;28;20458;-71
2023/09/29 12:31:20;;;;;;;7.77;4.50;;;31.10;85.30;;;;;;5031232;28;20450;-71
2023/09/29 12:33:47;;;;;;;7.97;4.60;;;31.30;85.20;;;;;;5031199;28;20457;-71
2023/09/29 12:36:14;;;;;;;8.13;4.90;;;31.50;85.00;;;;;;5031022;28;20446;-71
2023/09/29 12:38:44;;;;;;;8.07;4.80;;;31.40;84.90;;;;;;5012963;28;20992;-70
2023/09/29 12:41:11;;;;;;;5.80;4.30;;;31.30;84.80;;;;;;5030775;28;20980;-70
2023/09/29 12:43:38;;;;;;;6.80;4.50;;;31.30;85.40;;;;;;5030932;28;20976;-69
2023/09/29 12:46:05;;;;;;;6.43;4.37;;;31.50;84.50;;;;;;5031086;28;20517;-70
2023/09/29 12:48:34;;;;;;;8.80;4.50;;;31.70;84.10;;;;;;5013315;28;20458;-69
2023/09/29 12:51:01;;;;;;;6.20;4.40;;;31.80;82.90;;;;;;5030930;28;20496;-68